Agat, Guam
Current Conditions -  °F | °C
As of 1:54 PM on Sunday 26 Oct 2014 (Local Time) from PGUM Reporting Station
Few Clouds Few Clouds  
Wind Chill: 28°   Ceiling: Unl
Heat Index: 33°   Visibility: 10mi
Dew Point: 25°   Wind: 6mph
Humidity: 82%   Direction: 50°NE
Pressure: 29.87"   Gusts: NA
Location:  13.38°N, 144.65°E
Report Text: PGUM 260354Z 05005KT 10SM FEW022 28/25 A2987 RMK AO2 SLP105 T02830250 $
Loading
Personal Weather Stations






























Interactive Weather Map
Tropical Storm Tracking
New forecast layout! Learn more

10-Day Weather Forecast

Advertisements
Track Severe Weather on mobile